createdAt,value
2022-10-11T00:00:01.987Z,3.00
2022-10-11T00:02:28.704Z,2.88
2022-10-11T00:04:57.726Z,2.47
2022-10-11T00:07:26.794Z,3.08
2022-10-11T00:09:56.024Z,2.72
2022-10-11T00:12:22.730Z,3.25
2022-10-11T00:14:51.871Z,2.45
2022-10-11T00:17:18.707Z,2.85
2022-10-11T00:19:45.421Z,2.97
2022-10-11T00:22:14.297Z,3.08
2022-10-11T00:24:40.983Z,2.95
2022-10-11T00:27:07.937Z,3.00
2022-10-11T00:29:39.453Z,2.72
2022-10-11T00:32:06.750Z,2.90
2022-10-11T00:34:33.448Z,2.42
2022-10-11T00:37:00.237Z,3.30
2022-10-11T00:39:29.760Z,2.55
2022-10-11T00:41:56.667Z,2.83
2022-10-11T00:44:26.074Z,3.10
2022-10-11T00:47:20.723Z,2.58
2022-10-11T00:49:57.518Z,2.55
2022-10-11T00:52:31.854Z,2.40
2022-10-11T00:55:02.648Z,2.80
2022-10-11T00:57:33.963Z,2.15
2022-10-11T01:00:04.032Z,2.58
2022-10-11T01:02:30.744Z,2.22
2022-10-11T01:05:25.072Z,2.53
2022-10-11T01:07:47.962Z,2.67
2022-10-11T01:10:15.249Z,2.63
2022-10-11T01:13:17.205Z,2.30
2022-10-11T01:15:56.152Z,2.55
2022-10-11T01:18:32.911Z,2.20
2022-10-11T01:21:40.111Z,2.55
2022-10-11T01:24:44.887Z,2.40
2022-10-11T01:27:32.413Z,2.58
2022-10-11T01:30:33.960Z,2.95
2022-10-11T01:33:40.729Z,2.55
2022-10-11T01:36:27.918Z,2.80
2022-10-11T01:39:33.637Z,1.98
2022-10-11T01:42:03.198Z,2.28
2022-10-11T01:44:30.871Z,2.55
2022-10-11T01:46:57.643Z,2.50
2022-10-11T01:49:26.907Z,2.53
2022-10-11T01:51:55.319Z,2.47
2022-10-11T01:54:44.119Z,2.85
2022-10-11T01:57:41.930Z,2.00
2022-10-11T02:00:22.216Z,2.10
2022-10-11T02:03:16.115Z,2.15
2022-10-11T02:06:17.115Z,2.08
2022-10-11T02:09:07.149Z,2.65
2022-10-11T02:11:36.349Z,2.58
2022-10-11T02:14:22.730Z,2.30
2022-10-11T02:17:02.422Z,2.20
2022-10-11T02:19:38.503Z,2.70
2022-10-11T02:22:14.965Z,2.67
2022-10-11T02:24:44.532Z,3.10
2022-10-11T02:27:13.235Z,2.55
2022-10-11T02:29:43.690Z,2.20
2022-10-11T02:32:11.480Z,2.42
2022-10-11T02:34:44.223Z,2.10
2022-10-11T02:37:26.762Z,2.55
2022-10-11T02:40:19.971Z,2.45
2022-10-11T02:42:59.450Z,2.67
2022-10-11T02:45:29.506Z,1.75
2022-10-11T02:47:57.627Z,1.90
2022-10-11T02:50:24.398Z,2.00
2022-10-11T02:52:51.102Z,2.35
2022-10-11T02:55:17.807Z,2.72
2022-10-11T02:57:44.669Z,2.30
2022-10-11T03:00:12.209Z,2.60
2022-10-11T03:02:38.966Z,2.40
2022-10-11T03:05:05.915Z,2.42
2022-10-11T03:07:35.888Z,2.30
2022-10-11T03:10:03.009Z,2.60
2022-10-11T03:12:30.923Z,2.88
2022-10-11T03:14:57.635Z,2.88
2022-10-11T03:17:42.295Z,1.40
2022-10-11T03:20:09.537Z,1.60
2022-10-11T03:22:36.321Z,2.40
2022-10-11T03:25:04.617Z,2.47
2022-10-11T03:27:32.845Z,1.95
2022-10-11T03:30:02.228Z,2.35
2022-10-11T03:32:31.727Z,2.03
2022-10-11T03:34:58.441Z,2.40
2022-10-11T03:37:25.539Z,1.42
2022-10-11T03:39:52.364Z,1.20
2022-10-11T03:42:21.223Z,1.75
2022-10-11T03:44:50.085Z,1.33
2022-10-11T03:47:17.135Z,1.45
2022-10-11T03:49:43.997Z,1.20
2022-10-11T03:52:11.596Z,1.73
2022-10-11T03:54:38.364Z,1.80
2022-10-11T03:57:05.445Z,1.52
2022-10-11T03:59:32.368Z,1.55
2022-10-11T04:01:59.336Z,1.40
2022-10-11T04:04:26.151Z,1.42
2022-10-11T04:06:53.920Z,1.70
2022-10-11T04:09:20.668Z,1.48
2022-10-11T04:11:47.352Z,1.40
2022-10-11T04:14:14.126Z,1.95
2022-10-11T04:16:41.244Z,1.90
2022-10-11T04:19:08.022Z,1.63
2022-10-11T04:21:34.739Z,1.75
2022-10-11T04:24:03.800Z,2.13
2022-10-11T04:26:33.221Z,1.80
2022-10-11T04:29:00.012Z,1.75
2022-10-11T04:31:26.723Z,1.75
2022-10-11T04:33:53.483Z,2.47
2022-10-11T04:36:20.329Z,2.20
2022-10-11T04:38:47.123Z,2.83
2022-10-11T04:41:15.144Z,2.20
2022-10-11T04:43:42.148Z,2.53
2022-10-11T04:46:10.322Z,2.55
2022-10-11T04:48:37.525Z,2.60
2022-10-11T04:51:04.405Z,2.50
2022-10-11T04:53:31.124Z,2.17
2022-10-11T04:56:01.014Z,2.60
2022-10-11T04:58:29.289Z,2.30
2022-10-11T05:00:56.303Z,2.30
2022-10-11T05:03:23.731Z,2.72
2022-10-11T05:05:51.381Z,2.33
2022-10-11T05:08:18.349Z,2.00
2022-10-11T05:10:56.965Z,1.85
2022-10-11T05:13:24.767Z,2.00
2022-10-11T05:15:51.822Z,1.95
2022-10-11T05:18:18.662Z,2.15
2022-10-11T05:20:45.596Z,2.03
2022-10-11T05:23:12.325Z,2.00
2022-10-11T05:25:39.734Z,2.20
2022-10-11T05:28:06.750Z,2.95
2022-10-11T05:30:35.617Z,2.78
2022-10-11T05:33:02.391Z,1.75
2022-10-11T05:35:29.088Z,2.38
2022-10-11T05:37:57.959Z,2.10
2022-10-11T05:40:24.673Z,2.25
2022-10-11T05:42:51.417Z,2.08
2022-10-11T05:45:20.382Z,2.33
2022-10-11T05:47:49.240Z,2.33
2022-10-11T05:50:17.922Z,2.70
2022-10-11T05:52:47.592Z,2.30
2022-10-11T05:55:14.358Z,2.47
2022-10-11T05:57:41.124Z,2.38
2022-10-11T06:00:08.702Z,2.30
2022-10-11T06:02:37.729Z,2.22
2022-10-11T06:05:04.690Z,2.40
2022-10-11T06:07:31.872Z,2.25
2022-10-11T06:09:58.549Z,2.47
2022-10-11T06:12:27.815Z,2.45
2022-10-11T06:14:54.520Z,2.38
2022-10-11T06:17:23.801Z,2.85
2022-10-11T06:19:51.205Z,2.67
2022-10-11T06:22:18.498Z,2.80
2022-10-11T06:24:45.167Z,2.38
2022-10-11T06:27:13.042Z,2.78
2022-10-11T06:29:44.585Z,2.70
2022-10-11T06:32:13.643Z,2.92
2022-10-11T06:34:40.372Z,3.33
2022-10-11T06:37:07.293Z,3.03
2022-10-11T06:39:34.935Z,3.67
2022-10-11T06:42:01.802Z,3.60
2022-10-11T06:44:28.621Z,3.30
2022-10-11T06:46:55.445Z,4.00
2022-10-11T06:49:24.913Z,3.97
2022-10-11T06:51:51.719Z,2.95
2022-10-11T06:54:18.408Z,2.90
2022-10-11T06:56:45.757Z,4.30
2022-10-11T06:59:14.961Z,3.38
2022-10-11T07:01:42.682Z,4.15
2022-10-11T07:04:09.445Z,4.70
2022-10-11T07:06:41.163Z,4.78
2022-10-11T07:11:36.047Z,5.13
2022-10-11T07:14:07.586Z,5.20
2022-10-11T07:16:37.612Z,4.35
2022-10-11T07:19:06.537Z,4.90
2022-10-11T07:21:36.429Z,5.30
2022-10-11T07:24:03.690Z,5.45
2022-10-11T07:26:36.817Z,5.30
2022-10-11T07:29:06.711Z,5.55
2022-10-11T07:31:33.602Z,5.28
2022-10-11T07:34:00.344Z,5.53
2022-10-11T07:36:27.302Z,5.63
2022-10-11T07:38:56.239Z,5.70
2022-10-11T07:41:22.963Z,5.65
2022-10-11T07:43:52.241Z,5.75
2022-10-11T07:46:21.635Z,5.57
2022-10-11T07:48:50.248Z,5.30
2022-10-11T07:51:20.346Z,5.82
2022-10-11T07:53:49.617Z,7.13
2022-10-11T07:56:19.167Z,5.82
2022-10-11T07:58:51.460Z,5.55
2022-10-11T08:01:18.814Z,5.40
2022-10-11T08:03:46.527Z,5.75
2022-10-11T08:06:16.533Z,6.07
2022-10-11T08:08:45.815Z,5.60
2022-10-11T08:11:20.731Z,5.65
2022-10-11T08:13:47.412Z,4.78
2022-10-11T08:16:17.379Z,5.50
2022-10-11T08:18:46.802Z,5.10
2022-10-11T08:21:15.764Z,5.07
2022-10-11T08:23:42.493Z,4.57
2022-10-11T08:26:12.324Z,4.68
2022-10-11T08:28:39.288Z,4.97
2022-10-11T08:31:06.878Z,4.70
2022-10-11T08:33:36.114Z,4.35
2022-10-11T08:36:06.046Z,4.72
2022-10-11T08:38:34.073Z,5.80
2022-10-11T08:41:01.546Z,4.50
2022-10-11T08:43:44.908Z,5.18
2022-10-11T08:46:15.269Z,3.90
2022-10-11T08:48:47.921Z,4.25
2022-10-11T08:51:23.220Z,4.57
2022-10-11T08:54:07.348Z,4.00
2022-10-11T08:56:38.907Z,3.67
2022-10-11T08:59:14.558Z,3.30
2022-10-11T09:01:47.608Z,3.60
2022-10-11T09:04:15.955Z,3.28
2022-10-11T09:07:25.566Z,3.20
2022-10-11T09:10:00.983Z,3.33
2022-10-11T09:12:33.500Z,3.22
2022-10-11T09:15:15.278Z,3.47
2022-10-11T09:18:32.039Z,3.10
2022-10-11T09:21:20.040Z,3.30
2022-10-11T09:24:09.745Z,3.75
2022-10-11T09:27:08.822Z,3.60
2022-10-11T09:30:03.045Z,2.90
2022-10-11T09:32:35.992Z,3.10
2022-10-11T09:35:10.879Z,3.10
2022-10-11T09:37:49.344Z,3.72
2022-10-11T09:40:38.368Z,3.92
2022-10-11T09:43:05.759Z,3.00
2022-10-11T09:45:32.518Z,3.40
2022-10-11T09:48:01.614Z,2.90
2022-10-11T09:50:30.712Z,2.97
2022-10-11T09:53:01.152Z,3.90
2022-10-11T09:55:38.796Z,3.75
2022-10-11T09:58:24.643Z,3.08
2022-10-11T10:01:25.578Z,3.60
2022-10-11T10:04:13.844Z,2.50
2022-10-11T10:06:40.898Z,2.30
2022-10-11T10:09:30.931Z,2.38
2022-10-11T10:11:58.059Z,2.22
2022-10-11T10:14:30.220Z,2.42
2022-10-11T10:17:14.502Z,2.60
2022-10-11T10:19:57.088Z,2.38
2022-10-11T10:22:32.838Z,2.20
2022-10-11T10:25:05.936Z,2.10
2022-10-11T10:27:32.961Z,2.42
2022-10-11T10:30:15.840Z,2.65
2022-10-11T10:33:10.988Z,2.42
2022-10-11T10:35:51.877Z,2.55
2022-10-11T10:38:31.714Z,2.00
2022-10-11T10:41:02.841Z,2.00
2022-10-11T10:43:34.986Z,2.40
2022-10-11T10:46:23.597Z,2.20
2022-10-11T10:49:48.340Z,2.45
2022-10-11T10:52:09.245Z,2.28
2022-10-11T10:54:56.440Z,1.85
2022-10-11T10:57:38.535Z,2.45
2022-10-11T11:00:13.353Z,2.33
2022-10-11T11:03:00.869Z,2.47
2022-10-11T11:05:59.800Z,2.08
2022-10-11T11:08:29.480Z,2.15
2022-10-11T11:11:19.413Z,2.42
2022-10-11T11:14:11.473Z,2.45
2022-10-11T11:16:51.599Z,2.25
2022-10-11T11:19:50.498Z,2.33
2022-10-11T11:22:35.623Z,2.25
2022-10-11T11:25:44.823Z,2.40
2022-10-11T11:29:02.550Z,2.08
2022-10-11T11:31:52.994Z,2.67
2022-10-11T11:34:26.735Z,2.35
2022-10-11T11:36:56.598Z,2.58
2022-10-11T11:39:30.048Z,2.30
2022-10-11T11:41:59.592Z,2.55
2022-10-11T11:44:38.494Z,2.15
2022-10-11T11:47:12.542Z,2.75
2022-10-11T11:52:28.087Z,2.80
2022-10-11T11:55:10.712Z,2.75
2022-10-11T11:58:07.229Z,3.10
2022-10-11T12:00:54.525Z,2.50
2022-10-11T12:03:26.735Z,2.22
2022-10-11T12:06:13.886Z,2.53
2022-10-11T12:08:56.238Z,2.25
2022-10-11T12:11:34.523Z,2.33
2022-10-11T12:14:17.396Z,2.35
2022-10-11T12:17:22.865Z,2.60
2022-10-11T12:20:24.238Z,2.50
2022-10-11T12:22:57.875Z,1.95
2022-10-11T12:25:28.557Z,2.47
2022-10-11T12:28:19.394Z,2.30
2022-10-11T12:30:53.599Z,2.78
2022-10-11T12:33:24.701Z,2.15
2022-10-11T12:35:54.454Z,3.08
2022-10-11T12:38:40.189Z,2.20
2022-10-11T12:41:09.854Z,2.03
2022-10-11T12:44:15.078Z,2.60
2022-10-11T12:46:51.135Z,2.47
2022-10-11T12:49:29.333Z,1.98
2022-10-11T12:52:17.654Z,2.20
2022-10-11T12:55:27.981Z,2.17
2022-10-11T12:58:21.811Z,2.17
2022-10-11T13:00:51.776Z,1.90
2022-10-11T13:03:35.222Z,2.33
2022-10-11T13:06:26.202Z,2.30
2022-10-11T13:08:54.697Z,2.50
2022-10-11T13:11:48.063Z,2.50
2022-10-11T13:14:21.565Z,2.50
2022-10-11T13:16:58.657Z,2.53
2022-10-11T13:19:26.226Z,2.97
2022-10-11T13:22:01.965Z,2.60
2022-10-11T13:24:36.631Z,2.45
2022-10-11T13:27:04.725Z,2.30
2022-10-11T13:29:40.596Z,2.50
2022-10-11T13:32:29.669Z,2.05
2022-10-11T13:35:04.602Z,2.78
2022-10-11T13:37:42.971Z,2.13
2022-10-11T13:40:14.740Z,2.42
2022-10-11T13:42:44.327Z,2.40
2022-10-11T13:45:16.395Z,2.10
2022-10-11T13:47:43.319Z,2.30
2022-10-11T13:50:16.196Z,2.13
2022-10-11T13:52:59.869Z,2.53
2022-10-11T13:55:36.439Z,1.90
2022-10-11T13:58:16.299Z,2.35
2022-10-11T14:00:58.183Z,2.20
2022-10-11T14:03:40.542Z,2.40
2022-10-11T14:06:09.138Z,2.30
2022-10-11T14:08:42.152Z,2.17
2022-10-11T14:11:11.235Z,2.03
2022-10-11T14:13:42.011Z,2.15
2022-10-11T14:16:35.242Z,1.90
2022-10-11T14:19:07.739Z,2.00
2022-10-11T14:21:45.687Z,3.13
2022-10-11T14:24:14.468Z,2.13
2022-10-11T14:26:55.864Z,2.47
2022-10-11T14:29:31.063Z,2.60
2022-10-11T14:32:29.068Z,2.65
2022-10-11T14:34:56.366Z,2.58
2022-10-11T14:37:24.593Z,2.30
2022-10-11T14:39:51.707Z,2.20
2022-10-11T14:42:18.647Z,2.10
2022-10-11T14:44:45.446Z,2.35
2022-10-11T14:47:16.870Z,2.17
2022-10-11T14:52:15.932Z,1.90
2022-10-11T14:54:42.671Z,2.00
2022-10-11T14:57:12.956Z,2.25
2022-10-11T14:59:40.002Z,2.15
2022-10-11T15:02:11.496Z,2.58
2022-10-11T15:04:38.285Z,2.70
2022-10-11T15:07:07.544Z,2.45
2022-10-11T15:09:37.001Z,2.58
2022-10-11T15:12:03.913Z,2.17
2022-10-11T15:14:30.620Z,2.53
2022-10-11T15:16:57.537Z,2.90
2022-10-11T15:19:25.078Z,1.95
2022-10-11T15:21:54.324Z,2.15
2022-10-11T15:24:21.113Z,2.33
2022-10-11T15:26:48.985Z,2.45
2022-10-11T15:29:17.833Z,2.65
2022-10-11T15:31:49.175Z,2.90
2022-10-11T15:34:21.395Z,2.40
2022-10-11T15:36:51.274Z,2.15
2022-10-11T15:39:27.763Z,2.60
2022-10-11T15:41:57.177Z,2.30
2022-10-11T15:44:24.193Z,2.30
2022-10-11T15:46:53.154Z,2.20
2022-10-11T15:49:22.341Z,2.28
2022-10-11T15:51:54.601Z,2.50
2022-10-11T15:54:21.350Z,2.55
2022-10-11T15:56:50.457Z,2.47
2022-10-11T15:59:17.320Z,2.53
2022-10-11T16:01:44.091Z,2.50
2022-10-11T16:04:10.926Z,2.65
2022-10-11T16:06:37.834Z,2.60
2022-10-11T16:09:04.676Z,2.47
2022-10-11T16:11:31.350Z,2.35
2022-10-11T16:13:58.250Z,2.53
2022-10-11T16:16:24.982Z,2.58
2022-10-11T16:18:51.935Z,2.20
2022-10-11T16:21:20.515Z,2.83
2022-10-11T16:23:47.272Z,2.65
2022-10-11T16:26:16.264Z,2.83
2022-10-11T16:28:43.308Z,3.00
2022-10-11T16:31:13.971Z,2.90
2022-10-11T16:33:45.903Z,2.53
2022-10-11T16:36:36.523Z,2.63
2022-10-11T16:39:12.250Z,2.70
2022-10-11T16:41:39.339Z,2.75
2022-10-11T16:44:16.738Z,2.58
2022-10-11T16:46:48.083Z,3.22
2022-10-11T16:49:15.874Z,3.00
2022-10-11T16:51:42.578Z,3.05
2022-10-11T16:54:09.280Z,3.90
2022-10-11T16:56:39.882Z,4.72
2022-10-11T16:59:07.977Z,3.60
2022-10-11T17:01:37.486Z,3.17
2022-10-11T17:04:04.653Z,3.55
2022-10-11T17:06:31.541Z,3.47
2022-10-11T17:08:58.265Z,4.00
2022-10-11T17:11:25.210Z,3.15
2022-10-11T17:13:53.478Z,2.90
2022-10-11T17:16:24.324Z,3.83
2022-10-11T17:18:51.426Z,3.13
2022-10-11T17:21:20.115Z,3.20
2022-10-11T17:23:48.506Z,3.10
2022-10-11T17:26:23.306Z,3.35
2022-10-11T17:28:50.240Z,2.55
2022-10-11T17:31:17.212Z,2.83
2022-10-11T17:33:44.001Z,2.70
2022-10-11T17:36:19.326Z,2.78
2022-10-11T17:38:49.721Z,3.08
2022-10-11T17:41:16.978Z,2.78
2022-10-11T17:43:46.863Z,2.60
2022-10-11T17:46:15.850Z,2.63
2022-10-11T17:48:44.561Z,2.72
2022-10-11T17:51:20.305Z,3.13
2022-10-11T17:53:48.779Z,2.35
2022-10-11T17:56:28.820Z,2.20
2022-10-11T17:58:58.129Z,2.20
2022-10-11T18:01:29.371Z,2.50
2022-10-11T18:03:58.900Z,2.67
2022-10-11T18:06:28.954Z,2.75
2022-10-11T18:08:57.274Z,2.35
2022-10-11T18:11:23.992Z,2.83
2022-10-11T18:13:52.863Z,2.63
2022-10-11T18:16:22.771Z,3.17
2022-10-11T18:18:50.285Z,2.78
2022-10-11T18:21:18.685Z,2.92
2022-10-11T18:23:48.744Z,3.50
2022-10-11T18:26:21.272Z,3.45
2022-10-11T18:28:54.741Z,3.28
2022-10-11T18:31:26.757Z,4.00
2022-10-11T18:33:56.710Z,3.45
2022-10-11T18:36:27.014Z,3.45
2022-10-11T18:38:58.025Z,3.97
2022-10-11T18:41:30.601Z,4.18
2022-10-11T18:44:06.239Z,4.43
2022-10-11T18:46:36.907Z,4.03
2022-10-11T18:49:04.207Z,3.78
2022-10-11T18:51:33.782Z,4.45
2022-10-11T18:54:01.050Z,4.38
2022-10-11T18:56:29.236Z,4.68
2022-10-11T18:58:57.319Z,5.20
2022-10-11T19:01:44.599Z,4.45
2022-10-11T19:04:15.722Z,4.78
2022-10-11T19:06:50.713Z,4.95
2022-10-11T19:09:24.755Z,4.43
2022-10-11T19:11:53.375Z,4.10
2022-10-11T19:14:25.786Z,4.03
2022-10-11T19:16:53.752Z,4.28
2022-10-11T19:19:23.934Z,4.25
2022-10-11T19:21:54.330Z,4.72
2022-10-11T19:24:27.281Z,4.90
2022-10-11T19:27:02.556Z,4.97
2022-10-11T19:29:30.815Z,4.78
2022-10-11T19:31:59.724Z,5.22
2022-10-11T19:34:27.834Z,5.25
2022-10-11T19:37:00.612Z,5.40
2022-10-11T19:39:30.102Z,5.88
2022-10-11T19:41:56.919Z,5.70
2022-10-11T19:44:26.286Z,5.50
2022-10-11T19:46:55.294Z,5.15
2022-10-11T19:49:25.128Z,5.50
2022-10-11T19:51:56.001Z,6.00
2022-10-11T19:54:23.560Z,5.10
2022-10-11T19:56:50.472Z,6.50
2022-10-11T19:59:17.537Z,6.00
2022-10-11T20:01:52.255Z,6.40
2022-10-11T20:04:52.147Z,6.60
2022-10-11T20:07:14.578Z,6.20
2022-10-11T20:09:44.306Z,6.35
2022-10-11T20:12:13.536Z,6.07
2022-10-11T20:14:45.813Z,5.60
2022-10-11T20:17:15.354Z,6.30
2022-10-11T20:19:42.045Z,6.50
2022-10-11T20:22:14.039Z,6.95
2022-10-11T20:24:40.815Z,7.10
2022-10-11T20:27:10.010Z,7.13
2022-10-11T20:29:36.933Z,6.85
2022-10-11T20:32:03.728Z,7.00
2022-10-11T20:34:30.701Z,6.90
2022-10-11T20:36:57.975Z,6.85
2022-10-11T20:39:27.173Z,7.47
2022-10-11T20:41:53.808Z,7.20
2022-10-11T20:44:20.510Z,7.43
2022-10-11T20:46:47.242Z,8.15
2022-10-11T20:49:13.960Z,7.47
2022-10-11T20:51:41.835Z,7.68
2022-10-11T20:54:08.823Z,7.60
2022-10-11T20:56:35.662Z,7.15
2022-10-11T20:59:02.651Z,7.35
2022-10-11T21:01:32.493Z,7.72
2022-10-11T21:04:01.242Z,8.10
2022-10-11T21:06:29.649Z,8.18
2022-10-11T21:08:57.224Z,7.55
2022-10-11T21:11:32.400Z,7.60
2022-10-11T21:14:02.037Z,7.78
2022-10-11T21:16:29.070Z,7.60
2022-10-11T21:18:57.580Z,7.80
2022-10-11T21:21:25.462Z,7.70
2022-10-11T21:24:01.096Z,7.80
2022-10-11T21:26:29.073Z,7.68
2022-10-11T21:29:05.067Z,8.45
2022-10-11T21:31:34.270Z,8.65
2022-10-11T21:34:02.517Z,7.30
2022-10-11T21:36:29.317Z,7.95
2022-10-11T21:38:56.507Z,8.48
2022-10-11T21:41:25.601Z,8.27
2022-10-11T21:43:53.008Z,8.27
2022-10-11T21:46:21.728Z,8.50
2022-10-11T21:48:51.782Z,9.05
2022-10-11T21:51:21.396Z,11.32
2022-10-11T21:53:48.364Z,10.77
2022-10-11T21:56:16.547Z,11.05
2022-10-11T21:58:43.587Z,11.13
2022-10-11T22:01:11.509Z,11.73
2022-10-11T22:03:38.234Z,11.32
2022-10-11T22:06:05.221Z,10.07
2022-10-11T22:08:32.887Z,11.07
2022-10-11T22:11:00.695Z,10.55
2022-10-11T22:13:33.130Z,10.43
2022-10-11T22:16:05.055Z,11.02
2022-10-11T22:18:33.582Z,11.77
2022-10-11T22:21:09.705Z,10.48
2022-10-11T22:23:36.807Z,10.70
2022-10-11T22:26:10.748Z,11.27
2022-10-11T22:28:39.197Z,10.57
2022-10-11T22:31:07.118Z,10.77
2022-10-11T22:33:34.834Z,10.32
2022-10-11T22:36:04.099Z,9.75
2022-10-11T22:38:31.156Z,9.95
2022-10-11T22:40:58.698Z,9.98
2022-10-11T22:43:25.471Z,9.98
2022-10-11T22:45:52.385Z,9.57
2022-10-11T22:48:21.260Z,10.30
2022-10-11T22:50:50.215Z,9.45
2022-10-11T22:53:17.226Z,9.43
2022-10-11T22:55:44.053Z,9.43
2022-10-11T22:58:11.147Z,9.80
2022-10-11T23:00:37.926Z,10.13
2022-10-11T23:03:06.984Z,9.82
2022-10-11T23:05:35.065Z,10.63
2022-10-11T23:08:01.855Z,10.55
2022-10-11T23:10:28.999Z,9.95
2022-10-11T23:12:55.692Z,9.82
2022-10-11T23:15:22.698Z,9.65
2022-10-11T23:17:49.436Z,10.10
2022-10-11T23:20:16.215Z,10.35
2022-10-11T23:22:42.896Z,10.32
2022-10-11T23:25:09.984Z,10.90
2022-10-11T23:27:37.195Z,11.13
2022-10-11T23:30:05.101Z,10.85
2022-10-11T23:32:31.774Z,10.80
2022-10-11T23:34:58.504Z,11.07
2022-10-11T23:37:26.721Z,10.32
2022-10-11T23:39:53.375Z,10.88
2022-10-11T23:42:20.040Z,11.02
2022-10-11T23:44:46.744Z,10.63
2022-10-11T23:47:13.471Z,10.00
2022-10-11T23:49:40.119Z,10.45
2022-10-11T23:52:06.832Z,10.68
2022-10-11T23:54:33.525Z,10.88
2022-10-11T23:57:00.382Z,9.68
2022-10-11T23:59:27.286Z,10.23
